Time,TemperatureF,DewpointF,PressureIn,WindDirection,WindDirectionDegrees,WindSpeedMPH,WindSpeedGustMPH,Humidity,HourlyPrecipIn,Conditions,Clouds,dailyrainin,SoftwareType,DateUTC
2013-06-25 00:01:00,66.3,66.3,29.87,SSE,155,0.0,5.0,100,0.00,,,0.00,Wunderground v.1.15,2013-06-25 04:01:00,
2013-06-25 00:02:00,66.3,66.3,29.87,SSE,155,0.0,5.0,100,0.00,,,0.00,Wunderground v.1.15,2013-06-25 04:02:00,
2013-06-25 00:04:00,66.3,66.3,29.87,SSE,155,0.0,5.0,100,0.00,,,0.00,Wunderground v.1.15,2013-06-25 04:04:00,
2013-06-25 00:05:00,66.3,66.3,29.87,SSE,155,0.0,5.0,100,0.00,,,0.00,Wunderground v.1.15,2013-06-25 04:05:00,
2013-06-25 00:11:00,66.1,66.1,29.87,SSE,155,0.0,0.0,100,0.00,,,0.00,Wunderground v.1.15,2013-06-25 04:11:00,
2013-06-25 00:15:00,66.1,66.1,29.86,SSE,155,0.0,0.0,100,0.00,,,0.00,Wunderground v.1.15,2013-06-25 04:15:00,
2013-06-25 00:20:00,66.1,66.1,29.86,SSE,155,0.0,0.0,100,0.00,,,0.00,Wunderground v.1.15,2013-06-25 04:20:00,
2013-06-25 00:26:00,66.1,66.1,29.86,SSE,155,0.0,0.0,100,0.00,,,0.00,Wunderground v.1.15,2013-06-25 04:26:00,
2013-06-25 00:32:00,66.1,66.1,29.86,SSE,155,0.0,0.0,100,0.00,,,0.00,Wunderground v.1.15,2013-06-25 04:32:00,
2013-06-25 00:37:00,66.1,66.1,29.86,SSE,155,0.0,0.0,100,0.00,,,0.00,Wunderground v.1.15,2013-06-25 04:37:00,
2013-06-25 00:42:00,66.1,66.1,29.86,SSE,155,0.0,0.0,100,0.00,,,0.00,Wunderground v.1.15,2013-06-25 04:42:00,
2013-06-25 00:48:00,66.1,66.1,29.85,SSE,155,0.0,0.0,100,0.00,,,0.00,Wunderground v.1.15,2013-06-25 04:48:00,
2013-06-25 00:54:00,66.1,66.1,29.85,SSE,155,0.0,0.0,100,0.00,,,0.00,Wunderground v.1.15,2013-06-25 04:54:00,
2013-06-25 01:00:00,66.1,66.1,29.85,SSE,155,0.0,0.0,100,0.00,,,0.00,Wunderground v.1.15,2013-06-25 05:00:00,
2013-06-25 01:05:00,66.1,66.1,29.85,SSE,155,0.0,0.0,100,0.00,,,0.00,Wunderground v.1.15,2013-06-25 05:05:00,
2013-06-25 01:11:00,66.1,66.1,29.85,SSE,155,0.0,0.0,100,0.00,,,0.00,Wunderground v.1.15,2013-06-25 05:11:00,
2013-06-25 01:17:00,66.1,66.1,29.86,SSE,155,0.0,0.0,100,0.00,,,0.00,Wunderground v.1.15,2013-06-25 05:17:00,
2013-06-25 01:22:00,66.3,66.3,29.86,SSE,155,0.0,0.0,100,0.00,,,0.00,Wunderground v.1.15,2013-06-25 05:22:00,
2013-06-25 01:28:00,66.3,66.3,29.86,SSE,155,0.0,0.0,100,0.00,,,0.00,Wunderground v.1.15,2013-06-25 05:28:00,
2013-06-25 01:33:00,66.4,66.4,29.85,SSE,155,0.0,0.0,100,0.00,,,0.00,Wunderground v.1.15,2013-06-25 05:33:00,
2013-06-25 01:39:00,66.4,66.4,29.85,SSE,155,0.0,0.0,100,0.00,,,0.00,Wunderground v.1.15,2013-06-25 05:39:00,
2013-06-25 01:45:00,66.4,66.4,29.85,SSE,155,0.0,0.0,100,0.00,,,0.00,Wunderground v.1.15,2013-06-25 05:45:00,
2013-06-25 01:50:00,66.4,66.4,29.85,SSE,155,0.0,0.0,100,0.00,,,0.00,Wunderground v.1.15,2013-06-25 05:50:00,
2013-06-25 01:55:00,66.6,66.6,29.85,SSE,155,0.0,0.0,100,0.00,,,0.00,Wunderground v.1.15,2013-06-25 05:55:00,
2013-06-25 02:01:00,66.8,66.8,29.85,SSE,155,0.0,1.0,100,0.00,,,0.00,Wunderground v.1.15,2013-06-25 06:01:00,
2013-06-25 02:07:00,66.9,66.9,29.85,SSE,155,0.0,1.0,100,0.00,,,0.00,Wunderground v.1.15,2013-06-25 06:07:00,
2013-06-25 02:12:00,66.9,66.9,29.85,SSE,155,0.0,0.0,100,0.00,,,0.00,Wunderground v.1.15,2013-06-25 06:12:00,
2013-06-25 02:18:00,67.1,67.1,29.84,SSE,155,0.0,0.0,100,0.00,,,0.00,Wunderground v.1.15,2013-06-25 06:18:00,
2013-06-25 02:24:00,67.1,67.1,29.84,SSE,155,0.0,0.0,100,0.00,,,0.00,Wunderground v.1.15,2013-06-25 06:24:00,
2013-06-25 02:30:00,67.1,67.1,29.84,SSE,155,0.0,0.0,100,0.00,,,0.00,Wunderground v.1.15,2013-06-25 06:30:00,
2013-06-25 02:35:00,67.1,67.1,29.84,SSE,155,0.0,0.0,100,0.00,,,0.00,Wunderground v.1.15,2013-06-25 06:35:00,
2013-06-25 02:41:00,67.1,67.1,29.84,SSE,155,0.0,0.0,100,0.00,,,0.00,Wunderground v.1.15,2013-06-25 06:41:00,
2013-06-25 02:46:00,67.3,67.3,29.85,SSE,155,0.0,0.0,100,0.00,,,0.00,Wunderground v.1.15,2013-06-25 06:46:00,
2013-06-25 02:52:00,67.1,67.1,29.85,SSE,155,0.0,0.0,100,0.00,,,0.00,Wunderground v.1.15,2013-06-25 06:52:00,
2013-06-25 02:57:00,67.1,67.1,29.85,SSE,155,0.0,0.0,100,0.00,,,0.00,Wunderground v.1.15,2013-06-25 06:57:00,
2013-06-25 03:04:00,67.1,67.1,29.84,SSE,155,0.0,2.0,100,0.00,,,0.00,Wunderground v.1.15,2013-06-25 07:04:00,
2013-06-25 03:09:00,67.1,67.1,29.84,SSE,155,0.0,2.0,100,0.00,,,0.00,Wunderground v.1.15,2013-06-25 07:09:00,
2013-06-25 03:14:00,67.1,67.1,29.84,SSE,155,0.0,0.0,100,0.00,,,0.00,Wunderground v.1.15,2013-06-25 07:14:00,
2013-06-25 03:19:00,67.3,67.3,29.84,SSE,155,0.0,0.0,100,0.00,,,0.00,Wunderground v.1.15,2013-06-25 07:19:00,
2013-06-25 03:25:00,67.3,67.3,29.84,SSE,155,0.0,0.0,100,0.00,,,0.00,Wunderground v.1.15,2013-06-25 07:25:00,
2013-06-25 03:31:00,67.8,67.8,29.83,ENE,69,0.0,4.0,100,0.00,,,0.00,Wunderground v.1.15,2013-06-25 07:31:00,
2013-06-25 03:36:00,67.8,67.8,29.83,ENE,69,0.0,4.0,100,0.00,,,0.00,Wunderground v.1.15,2013-06-25 07:36:00,
2013-06-25 03:42:00,67.9,67.9,29.83,ENE,69,0.0,1.0,100,0.00,,,0.00,Wunderground v.1.15,2013-06-25 07:42:00,
2013-06-25 03:48:00,67.9,67.9,29.82,ENE,68,0.0,2.0,100,0.00,,,0.00,Wunderground v.1.15,2013-06-25 07:48:00,
2013-06-25 03:54:00,68.1,68.1,29.82,ENE,68,0.0,0.0,100,0.00,,,0.00,Wunderground v.1.15,2013-06-25 07:54:00,
2013-06-25 03:59:00,68.3,68.3,29.82,ENE,68,0.0,1.0,100,0.00,,,0.00,Wunderground v.1.15,2013-06-25 07:59:00,
2013-06-25 04:04:00,68.6,68.6,29.82,ENE,68,0.0,1.0,100,0.00,,,0.00,Wunderground v.1.15,2013-06-25 08:04:00,
2013-06-25 04:10:00,68.8,68.8,29.82,ENE,68,0.0,0.0,100,0.00,,,0.00,Wunderground v.1.15,2013-06-25 08:10:00,
2013-06-25 04:16:00,68.9,68.9,29.82,ENE,68,0.0,0.0,100,0.00,,,0.00,Wunderground v.1.15,2013-06-25 08:16:00,
2013-06-25 04:21:00,69.1,69.1,29.82,ENE,68,0.0,0.0,100,0.00,,,0.00,Wunderground v.1.15,2013-06-25 08:21:00,
2013-06-25 04:27:00,68.9,68.9,29.82,ENE,68,0.0,0.0,100,0.00,,,0.00,Wunderground v.1.15,2013-06-25 08:27:00,
2013-06-25 04:32:00,68.9,68.9,29.81,ENE,68,0.0,0.0,100,0.00,,,0.00,Wunderground v.1.15,2013-06-25 08:32:00,
2013-06-25 04:39:00,69.3,69.3,29.81,ENE,71,0.0,0.0,100,0.00,,,0.00,Wunderground v.1.15,2013-06-25 08:39:00,
2013-06-25 04:44:00,69.4,69.4,29.81,ENE,59,1.0,2.0,100,0.00,,,0.00,Wunderground v.1.15,2013-06-25 08:44:00,
2013-06-25 04:50:00,69.6,69.6,29.81,ENE,68,1.0,1.0,100,0.17,,,0.02,Wunderground v.1.15,2013-06-25 08:50:00,
2013-06-25 04:55:00,69.4,69.4,29.81,ENE,69,1.0,1.0,100,0.07,,,0.02,Wunderground v.1.15,2013-06-25 08:55:00,
2013-06-25 05:01:00,69.6,69.6,29.80,ENE,69,0.0,2.0,100,0.04,,,0.02,Wunderground v.1.15,2013-06-25 09:01:00,
2013-06-25 05:07:00,69.4,69.4,29.80,ENE,69,0.0,2.0,100,0.00,,,0.02,Wunderground v.1.15,2013-06-25 09:07:00,
2013-06-25 05:14:00,69.4,69.4,29.80,ENE,69,0.0,0.0,100,0.00,,,0.02,Wunderground v.1.15,2013-06-25 09:14:00,
2013-06-25 05:19:00,68.8,68.8,29.81,SSE,158,0.0,0.0,100,0.00,,,0.02,Wunderground v.1.15,2013-06-25 09:19:00,
2013-06-25 05:24:00,68.8,68.8,29.81,SSE,158,0.0,0.0,100,0.00,,,0.02,Wunderground v.1.15,2013-06-25 09:24:00,
2013-06-25 05:29:00,68.3,68.3,29.81,SSW,199,2.0,7.0,100,0.00,,,0.02,Wunderground v.1.15,2013-06-25 09:29:00,
2013-06-25 05:35:00,68.3,68.3,29.90,NNE,30,6.0,10.0,100,0.14,,,0.04,Wunderground v.1.15,2013-06-25 09:35:00,
2013-06-25 05:40:00,67.4,67.4,29.90,NE,40,5.0,5.0,100,0.51,,,0.06,Wunderground v.1.15,2013-06-25 09:40:00,
2013-06-25 05:46:00,66.9,66.9,29.87,NE,51,3.0,6.0,100,0.11,,,0.07,Wunderground v.1.15,2013-06-25 09:46:00,
2013-06-25 05:51:00,66.8,66.8,29.87,ENE,58,1.0,1.0,100,0.06,,,0.07,Wunderground v.1.15,2013-06-25 09:51:00,
2013-06-25 05:57:00,66.6,66.6,29.87,ENE,59,1.0,3.0,100,0.04,,,0.07,Wunderground v.1.15,2013-06-25 09:57:00,
2013-06-25 06:04:00,66.4,66.4,29.84,ENE,62,0.0,7.0,100,0.00,,,0.07,Wunderground v.1.15,2013-06-25 10:04:00,
2013-06-25 06:09:00,66.4,66.4,29.84,ENE,61,0.0,7.0,100,0.00,,,0.07,Wunderground v.1.15,2013-06-25 10:09:00,
2013-06-25 06:14:00,66.3,66.3,29.86,ENE,62,0.0,0.0,100,0.00,,,0.07,Wunderground v.1.15,2013-06-25 10:14:00,
2013-06-25 06:19:00,66.8,66.8,29.86,NNE,21,0.0,3.0,100,0.00,,,0.07,Wunderground v.1.15,2013-06-25 10:19:00,
2013-06-25 06:25:00,66.8,66.8,29.86,NNE,20,1.0,2.0,100,0.00,,,0.07,Wunderground v.1.15,2013-06-25 10:25:00,
2013-06-25 06:30:00,66.8,66.8,29.87,NNE,20,1.0,1.0,100,0.00,,,0.07,Wunderground v.1.15,2013-06-25 10:30:00,
2013-06-25 06:36:00,66.8,66.8,29.87,NNE,21,0.0,1.0,100,0.00,,,0.07,Wunderground v.1.15,2013-06-25 10:36:00,
2013-06-25 06:41:00,66.8,66.8,29.87,NNE,21,0.0,0.0,100,0.00,,,0.07,Wunderground v.1.15,2013-06-25 10:41:00,
2013-06-25 06:47:00,66.8,66.8,29.88,NNE,21,0.0,0.0,100,0.00,,,0.07,Wunderground v.1.15,2013-06-25 10:47:00,
2013-06-25 06:54:00,-999.9,-99.9,29.88,North,32767,-999.0,0.0,255,-99.99,,,0.07,Wunderground v.1.15,2013-06-25 10:54:00,
2013-06-25 06:59:00,-999.9,-99.9,29.88,North,32767,-999.0,0.0,255,-99.99,,,0.07,Wunderground v.1.15,2013-06-25 10:59:00,
2013-06-25 07:04:00,-999.9,-99.9,29.85,North,32767,-999.0,13.0,255,-99.99,,,0.07,Wunderground v.1.15,2013-06-25 11:04:00,
2013-06-25 07:09:00,-999.9,-99.9,29.85,North,32767,-999.0,13.0,255,-99.99,,,0.07,Wunderground v.1.15,2013-06-25 11:09:00,
2013-06-25 07:14:00,-999.9,-99.9,29.86,North,32767,-999.0,0.0,255,-99.99,,,0.07,Wunderground v.1.15,2013-06-25 11:14:00,
2013-06-25 07:20:00,-999.9,-99.9,29.86,North,32767,-999.0,0.0,255,-99.99,,,0.07,Wunderground v.1.15,2013-06-25 11:20:00,
2013-06-25 07:25:00,-999.9,-99.9,29.86,North,32767,-999.0,0.0,255,-99.99,,,0.07,Wunderground v.1.15,2013-06-25 11:25:00,
2013-06-25 07:30:00,-999.9,-99.9,29.86,North,32767,-999.0,0.0,255,-99.99,,,0.07,Wunderground v.1.15,2013-06-25 11:30:00,
2013-06-25 07:36:00,-999.9,-99.9,29.86,North,32767,-999.0,0.0,255,-99.99,,,0.07,Wunderground v.1.15,2013-06-25 11:36:00,
2013-06-25 07:41:00,-999.9,-99.9,29.86,North,32767,-999.0,0.0,255,-99.99,,,0.07,Wunderground v.1.15,2013-06-25 11:41:00,
2013-06-25 07:46:00,-999.9,-99.9,29.88,North,32767,-999.0,0.0,255,-99.99,,,0.07,Wunderground v.1.15,2013-06-25 11:46:00,
2013-06-25 07:52:00,-999.9,-99.9,29.88,North,32767,-999.0,0.0,255,-99.99,,,0.07,Wunderground v.1.15,2013-06-25 11:52:00,
2013-06-25 07:58:00,-999.9,-99.9,29.88,North,32767,-999.0,0.0,255,-99.99,,,0.07,Wunderground v.1.15,2013-06-25 11:58:00,
2013-06-25 08:04:00,-999.9,-99.9,29.86,North,32767,-999.0,0.0,255,-99.99,,,0.07,Wunderground v.1.15,2013-06-25 12:04:00,
2013-06-25 08:09:00,-999.9,-99.9,29.86,North,32767,-999.0,0.0,255,-99.99,,,0.07,Wunderground v.1.15,2013-06-25 12:09:00,
2013-06-25 08:15:00,-999.9,-99.9,29.88,North,32767,-999.0,0.0,255,-99.99,,,0.07,Wunderground v.1.15,2013-06-25 12:15:00,
2013-06-25 08:21:00,-999.9,-99.9,29.88,North,32767,-999.0,0.0,255,-99.99,,,0.07,Wunderground v.1.15,2013-06-25 12:21:00,
2013-06-25 08:26:00,-999.9,-99.9,29.88,North,32767,-999.0,0.0,255,-99.99,,,0.07,Wunderground v.1.15,2013-06-25 12:26:00,
2013-06-25 08:31:00,-999.9,-99.9,29.90,North,32767,-999.0,0.0,255,-99.99,,,0.07,Wunderground v.1.15,2013-06-25 12:31:00,
2013-06-25 08:37:00,-999.9,-99.9,29.90,North,32767,-999.0,0.0,255,-99.99,,,0.07,Wunderground v.1.15,2013-06-25 12:37:00,
2013-06-25 08:43:00,-999.9,-99.9,29.90,North,32767,-999.0,0.0,255,-99.99,,,0.07,Wunderground v.1.15,2013-06-25 12:43:00,
2013-06-25 08:49:00,-999.9,-99.9,29.86,North,32767,-999.0,0.0,255,-99.99,,,0.07,Wunderground v.1.15,2013-06-25 12:49:00,
2013-06-25 08:55:00,-999.9,-99.9,29.86,North,32767,-999.0,0.0,255,-99.99,,,0.07,Wunderground v.1.15,2013-06-25 12:55:00,
2013-06-25 09:00:00,-999.9,-99.9,29.86,North,32767,-999.0,0.0,255,-99.99,,,0.07,Wunderground v.1.15,2013-06-25 13:00:00,
2013-06-25 09:06:00,-999.9,-99.9,29.86,North,32767,-999.0,0.0,255,-99.99,,,0.07,Wunderground v.1.15,2013-06-25 13:06:00,
2013-06-25 09:11:00,-999.9,-99.9,29.86,North,32767,-999.0,0.0,255,-99.99,,,0.07,Wunderground v.1.15,2013-06-25 13:11:00,
2013-06-25 09:16:00,-999.9,-99.9,29.86,North,32767,-999.0,0.0,255,-99.99,,,0.07,Wunderground v.1.15,2013-06-25 13:16:00,
2013-06-25 09:22:00,-999.9,-99.9,29.86,North,32767,-999.0,0.0,255,-99.99,,,0.07,Wunderground v.1.15,2013-06-25 13:22:00,
2013-06-25 09:27:00,-999.9,-99.9,29.86,North,32767,-999.0,0.0,255,-99.99,,,0.07,Wunderground v.1.15,2013-06-25 13:27:00,
2013-06-25 09:33:00,-999.9,-99.9,29.86,North,32767,-999.0,0.0,255,-99.99,,,0.07,Wunderground v.1.15,2013-06-25 13:33:00,
2013-06-25 09:38:00,-999.9,-99.9,29.86,North,32767,-999.0,0.0,255,-99.99,,,0.07,Wunderground v.1.15,2013-06-25 13:38:00,
2013-06-25 09:43:00,-999.9,-99.9,29.86,North,32767,-999.0,0.0,255,-99.99,,,0.07,Wunderground v.1.15,2013-06-25 13:43:00,
2013-06-25 09:49:00,-999.9,-99.9,29.85,North,32767,-999.0,0.0,255,-99.99,,,0.07,Wunderground v.1.15,2013-06-25 13:49:00,
2013-06-25 09:54:00,-999.9,-99.9,29.85,North,32767,-999.0,0.0,255,-99.99,,,0.07,Wunderground v.1.15,2013-06-25 13:54:00,
2013-06-25 10:00:00,-999.9,-99.9,29.86,North,32767,-999.0,0.0,255,-99.99,,,0.07,Wunderground v.1.15,2013-06-25 14:00:00,
2013-06-25 10:06:00,-999.9,-99.9,29.86,North,32767,-999.0,0.0,255,-99.99,,,0.07,Wunderground v.1.15,2013-06-25 14:06:00,
2013-06-25 10:11:00,-999.9,-99.9,29.86,North,32767,-999.0,0.0,255,-99.99,,,0.07,Wunderground v.1.15,2013-06-25 14:11:00,
2013-06-25 10:17:00,-999.9,-99.9,29.86,North,32767,-999.0,0.0,255,-99.99,,,0.07,Wunderground v.1.15,2013-06-25 14:17:00,
2013-06-25 10:23:00,-999.9,-99.9,29.86,North,32767,-999.0,0.0,255,-99.99,,,0.07,Wunderground v.1.15,2013-06-25 14:23:00,
2013-06-25 10:28:00,-999.9,-99.9,29.86,North,32767,-999.0,0.0,255,-99.99,,,0.07,Wunderground v.1.15,2013-06-25 14:28:00,
2013-06-25 10:34:00,-999.9,-99.9,29.86,North,32767,-999.0,0.0,255,-99.99,,,0.07,Wunderground v.1.15,2013-06-25 14:34:00,
2013-06-25 10:39:00,-999.9,-99.9,29.86,North,32767,-999.0,0.0,255,-99.99,,,0.07,Wunderground v.1.15,2013-06-25 14:39:00,
2013-06-25 10:45:00,-999.9,-99.9,29.84,North,32767,-999.0,0.0,255,-99.99,,,0.07,Wunderground v.1.15,2013-06-25 14:45:00,
2013-06-25 10:51:00,-999.9,-99.9,29.84,North,32767,-999.0,0.0,255,-99.99,,,0.07,Wunderground v.1.15,2013-06-25 14:51:00,
2013-06-25 10:55:00,-999.9,-99.9,29.84,North,32767,-999.0,0.0,255,-99.99,,,0.07,Wunderground v.1.15,2013-06-25 14:55:00,
2013-06-25 11:01:00,-999.9,-99.9,29.83,North,32767,-999.0,0.0,255,-99.99,,,0.07,Wunderground v.1.15,2013-06-25 15:01:00,
2013-06-25 11:06:00,-999.9,-99.9,29.83,North,32767,-999.0,0.0,255,-99.99,,,0.07,Wunderground v.1.15,2013-06-25 15:06:00,
2013-06-25 11:12:00,-999.9,-99.9,29.83,North,32767,-999.0,0.0,255,-99.99,,,0.07,Wunderground v.1.15,2013-06-25 15:12:00,
2013-06-25 11:18:00,-999.9,-99.9,29.84,North,32767,-999.0,0.0,255,-99.99,,,0.07,Wunderground v.1.15,2013-06-25 15:18:00,
2013-06-25 11:23:00,-999.9,-99.9,29.84,North,32767,-999.0,0.0,255,-99.99,,,0.07,Wunderground v.1.15,2013-06-25 15:23:00,
2013-06-25 11:28:00,-999.9,-99.9,29.84,North,32767,-999.0,0.0,255,-99.99,,,0.07,Wunderground v.1.15,2013-06-25 15:28:00,
2013-06-25 11:33:00,-999.9,-99.9,29.84,North,32767,-999.0,0.0,255,-99.99,,,0.07,Wunderground v.1.15,2013-06-25 15:33:00,
2013-06-25 11:38:00,-999.9,-99.9,29.84,North,32767,-999.0,0.0,255,-99.99,,,0.07,Wunderground v.1.15,2013-06-25 15:38:00,
2013-06-25 11:44:00,-999.9,-99.9,29.84,North,32767,-999.0,0.0,255,-99.99,,,0.07,Wunderground v.1.15,2013-06-25 15:44:00,
2013-06-25 11:49:00,-999.9,-99.9,29.86,North,32767,-999.0,0.0,255,-99.99,,,0.07,Wunderground v.1.15,2013-06-25 15:49:00,
2013-06-25 11:54:00,74.2,-99.9,29.86,ENE,76,0.0,0.0,255,0.00,,,0.07,Wunderground v.1.15,2013-06-25 15:54:00,
2013-06-25 12:00:00,74.6,74.6,29.86,ENE,76,0.0,0.0,100,0.00,,,0.07,Wunderground v.1.15,2013-06-25 16:00:00,
2013-06-25 12:05:00,74.9,74.9,29.86,ENE,73,1.0,2.0,100,0.00,,,0.07,Wunderground v.1.15,2013-06-25 16:05:00,
2013-06-25 12:11:00,75.3,75.3,29.86,ENE,66,1.0,1.0,100,0.00,,,0.07,Wunderground v.1.15,2013-06-25 16:11:00,
2013-06-25 12:17:00,75.8,75.8,29.86,ENE,69,1.0,2.0,100,0.00,,,0.07,Wunderground v.1.15,2013-06-25 16:17:00,
2013-06-25 12:22:00,75.8,75.8,29.86,South,182,1.0,2.0,100,0.00,,,0.07,Wunderground v.1.15,2013-06-25 16:22:00,
2013-06-25 12:28:00,76.1,76.1,29.86,SSE,155,0.0,2.0,100,0.00,,,0.07,Wunderground v.1.15,2013-06-25 16:28:00,
2013-06-25 12:34:00,77.0,77.0,29.85,South,186,1.0,1.0,100,0.00,,,0.07,Wunderground v.1.15,2013-06-25 16:34:00,
2013-06-25 12:39:00,77.0,77.0,29.85,SSW,208,1.0,1.0,100,0.00,,,0.07,Wunderground v.1.15,2013-06-25 16:39:00,
2013-06-25 12:45:00,77.2,77.2,29.84,SSW,202,0.0,1.0,100,0.00,,,0.07,Wunderground v.1.15,2013-06-25 16:45:00,
2013-06-25 12:50:00,77.6,77.6,29.84,SSW,202,0.0,1.0,100,0.00,,,0.07,Wunderground v.1.15,2013-06-25 16:50:00,
2013-06-25 12:56:00,77.9,77.9,29.84,SSW,202,0.0,0.0,100,0.00,,,0.07,Wunderground v.1.15,2013-06-25 16:56:00,
2013-06-25 13:01:00,78.1,78.1,29.83,SSW,202,0.0,0.0,100,0.00,,,0.07,Wunderground v.1.15,2013-06-25 17:01:00,
2013-06-25 13:06:00,78.1,78.1,29.83,SSW,202,0.0,2.0,100,0.00,,,0.07,Wunderground v.1.15,2013-06-25 17:06:00,
2013-06-25 13:12:00,78.3,78.3,29.83,SSW,213,0.0,2.0,100,0.00,,,0.07,Wunderground v.1.15,2013-06-25 17:12:00,
2013-06-25 13:18:00,78.3,78.3,29.80,SSW,213,0.0,2.0,100,0.00,,,0.07,Wunderground v.1.15,2013-06-25 17:18:00,
2013-06-25 13:23:00,78.1,78.1,29.80,SSW,213,0.0,0.0,100,0.00,,,0.07,Wunderground v.1.15,2013-06-25 17:23:00,
2013-06-25 13:29:00,77.9,77.9,29.80,East,79,0.0,1.0,100,0.00,,,0.07,Wunderground v.1.15,2013-06-25 17:29:00,
2013-06-25 13:34:00,77.7,77.7,29.77,ENE,71,1.0,2.0,100,0.00,,,0.07,Wunderground v.1.15,2013-06-25 17:34:00,
2013-06-25 13:40:00,77.9,77.9,29.77,East,86,3.0,7.0,100,0.00,,,0.07,Wunderground v.1.15,2013-06-25 17:40:00,
2013-06-25 13:46:00,78.3,78.3,29.71,ENE,69,4.0,7.0,100,0.00,,,0.07,Wunderground v.1.15,2013-06-25 17:46:00,
2013-06-25 13:52:00,78.6,78.6,29.71,ENE,72,2.0,3.0,100,0.00,,,0.07,Wunderground v.1.15,2013-06-25 17:52:00,
2013-06-25 13:57:00,79.2,79.2,29.71,ENE,71,1.0,3.0,100,0.00,,,0.07,Wunderground v.1.15,2013-06-25 17:57:00,
2013-06-25 14:02:00,79.4,79.4,29.74,ENE,66,0.0,7.0,100,0.00,,,0.07,Wunderground v.1.15,2013-06-25 18:02:00,
2013-06-25 14:08:00,79.8,79.8,29.74,NNE,18,0.0,7.0,100,0.00,,,0.07,Wunderground v.1.15,2013-06-25 18:08:00,
2013-06-25 14:14:00,79.8,79.8,29.74,NNE,18,0.0,0.0,100,0.00,,,0.07,Wunderground v.1.15,2013-06-25 18:14:00,
2013-06-25 14:19:00,79.8,79.8,29.75,NNE,18,0.0,0.0,100,0.00,,,0.07,Wunderground v.1.15,2013-06-25 18:19:00,
2013-06-25 14:25:00,79.9,79.9,29.75,NNE,18,0.0,2.0,100,0.00,,,0.07,Wunderground v.1.15,2013-06-25 18:25:00,
2013-06-25 14:31:00,79.9,79.9,29.75,North,10,0.0,0.0,100,0.00,,,0.07,Wunderground v.1.15,2013-06-25 18:31:00,
2013-06-25 14:37:00,80.3,80.3,29.75,North,10,0.0,0.0,100,0.00,,,0.07,Wunderground v.1.15,2013-06-25 18:37:00,
2013-06-25 14:43:00,79.9,79.9,29.75,NNW,339,1.0,3.0,100,0.00,,,0.07,Wunderground v.1.15,2013-06-25 18:43:00,
2013-06-25 14:48:00,80.3,80.3,29.77,NNW,339,1.0,3.0,100,0.00,,,0.07,Wunderground v.1.15,2013-06-25 18:48:00,
2013-06-25 14:53:00,80.5,80.5,29.77,NNW,339,0.0,1.0,100,0.00,,,0.07,Wunderground v.1.15,2013-06-25 18:53:00,
2013-06-25 14:59:00,80.7,80.7,29.77,NNW,339,0.0,1.0,100,0.00,,,0.07,Wunderground v.1.15,2013-06-25 18:59:00,
2013-06-25 15:05:00,80.9,80.9,29.77,NNW,339,0.0,10.0,100,0.00,,,0.07,Wunderground v.1.15,2013-06-25 19:05:00,
2013-06-25 15:11:00,81.1,81.1,29.77,NNW,339,0.0,1.0,100,0.00,,,0.07,Wunderground v.1.15,2013-06-25 19:11:00,
2013-06-25 15:17:00,81.2,81.2,29.78,NNW,339,0.0,1.0,100,0.00,,,0.07,Wunderground v.1.15,2013-06-25 19:17:00,
2013-06-25 15:22:00,80.7,80.7,29.78,West,274,1.0,8.0,100,0.00,,,0.07,Wunderground v.1.15,2013-06-25 19:22:00,
2013-06-25 15:28:00,78.8,78.8,29.78,WNW,298,4.0,8.0,100,0.00,,,0.07,Wunderground v.1.15,2013-06-25 19:28:00,
2013-06-25 15:33:00,78.3,78.3,29.78,West,271,3.0,4.0,100,0.00,,,0.07,Wunderground v.1.15,2013-06-25 19:33:00,
2013-06-25 15:39:00,78.3,78.3,29.78,WNW,282,2.0,5.0,100,0.00,,,0.07,Wunderground v.1.15,2013-06-25 19:39:00,
2013-06-25 15:45:00,78.3,78.3,29.78,West,280,2.0,7.0,100,0.00,,,0.07,Wunderground v.1.15,2013-06-25 19:45:00,
2013-06-25 15:50:00,78.5,78.5,29.78,WNW,289,2.0,2.0,100,0.00,,,0.07,Wunderground v.1.15,2013-06-25 19:50:00,
2013-06-25 15:56:00,78.5,78.5,29.78,NW,304,3.0,6.0,100,0.00,,,0.07,Wunderground v.1.15,2013-06-25 19:56:00,
2013-06-25 16:02:00,78.8,78.8,29.77,WNW,284,2.0,5.0,100,0.00,,,0.07,Wunderground v.1.15,2013-06-25 20:02:00,
2013-06-25 16:08:00,78.3,78.3,29.77,NW,304,3.0,6.0,100,0.00,,,0.07,Wunderground v.1.15,2013-06-25 20:08:00,
2013-06-25 16:13:00,78.5,78.5,29.77,West,280,3.0,4.0,100,0.00,,,0.07,Wunderground v.1.15,2013-06-25 20:13:00,
2013-06-25 16:19:00,78.3,78.3,29.77,West,280,3.0,4.0,100,0.00,,,0.07,Wunderground v.1.15,2013-06-25 20:19:00,
2013-06-25 16:24:00,78.6,78.6,29.77,West,280,2.0,6.0,100,0.00,,,0.07,Wunderground v.1.15,2013-06-25 20:24:00,
2013-06-25 16:30:00,79.0,79.0,29.77,WNW,302,1.0,2.0,100,0.00,,,0.07,Wunderground v.1.15,2013-06-25 20:30:00,
2013-06-25 16:35:00,79.4,79.4,29.77,WNW,302,1.0,3.0,100,0.00,,,0.07,Wunderground v.1.15,2013-06-25 20:35:00,
2013-06-25 16:41:00,79.4,79.4,29.77,WNW,302,1.0,5.0,100,0.00,,,0.07,Wunderground v.1.15,2013-06-25 20:41:00,
2013-06-25 16:46:00,79.6,79.6,29.77,WNW,302,1.0,5.0,100,0.00,,,0.07,Wunderground v.1.15,2013-06-25 20:46:00,
2013-06-25 16:51:00,79.6,79.6,29.77,West,281,1.0,5.0,100,0.00,,,0.07,Wunderground v.1.15,2013-06-25 20:51:00,
2013-06-25 16:57:00,79.8,79.8,29.77,WNW,282,1.0,5.0,100,0.00,,,0.07,Wunderground v.1.15,2013-06-25 20:57:00,
2013-06-25 17:03:00,79.4,79.4,29.77,West,260,1.0,8.0,100,0.00,,,0.07,Wunderground v.1.15,2013-06-25 21:03:00,
2013-06-25 17:09:00,78.8,78.8,29.77,West,260,1.0,8.0,100,0.00,,,0.07,Wunderground v.1.15,2013-06-25 21:09:00,
2013-06-25 17:14:00,78.6,78.6,29.77,West,260,1.0,1.0,100,0.00,,,0.07,Wunderground v.1.15,2013-06-25 21:14:00,
2013-06-25 17:20:00,78.6,78.6,29.77,West,260,1.0,1.0,100,0.00,,,0.07,Wunderground v.1.15,2013-06-25 21:20:00,
2013-06-25 17:26:00,79.0,79.0,29.77,West,260,1.0,2.0,100,0.00,,,0.07,Wunderground v.1.15,2013-06-25 21:26:00,
2013-06-25 17:31:00,79.4,79.4,29.75,WNW,296,1.0,2.0,100,0.00,,,0.07,Wunderground v.1.15,2013-06-25 21:31:00,
2013-06-25 17:37:00,79.6,79.6,29.75,West,277,2.0,2.0,100,0.00,,,0.07,Wunderground v.1.15,2013-06-25 21:37:00,
2013-06-25 17:42:00,79.8,79.8,29.75,West,277,1.0,2.0,100,0.00,,,0.07,Wunderground v.1.15,2013-06-25 21:42:00,
2013-06-25 17:49:00,79.6,79.6,29.75,West,277,1.0,3.0,100,0.00,,,0.07,Wunderground v.1.15,2013-06-25 21:49:00,
2013-06-25 17:54:00,79.8,79.8,29.75,West,277,0.0,1.0,100,0.00,,,0.07,Wunderground v.1.15,2013-06-25 21:54:00,
2013-06-25 17:59:00,79.9,79.9,29.75,West,277,0.0,3.0,100,0.00,,,0.07,Wunderground v.1.15,2013-06-25 21:59:00,
2013-06-25 18:05:00,79.8,79.8,29.74,WNW,298,1.0,6.0,100,0.00,,,0.07,Wunderground v.1.15,2013-06-25 22:05:00,
2013-06-25 18:11:00,79.9,79.9,29.74,WNW,298,1.0,1.0,100,0.00,,,0.07,Wunderground v.1.15,2013-06-25 22:11:00,
2013-06-25 18:16:00,80.1,80.1,29.73,WNW,298,1.0,5.0,100,0.00,,,0.07,Wunderground v.1.15,2013-06-25 22:16:00,
2013-06-25 18:22:00,79.9,79.9,29.73,WNW,298,1.0,1.0,100,0.00,,,0.07,Wunderground v.1.15,2013-06-25 22:22:00,
2013-06-25 18:28:00,80.3,80.3,29.73,WNW,298,1.0,1.0,100,0.00,,,0.07,Wunderground v.1.15,2013-06-25 22:28:00,
2013-06-25 18:34:00,80.1,80.1,29.73,WNW,298,1.0,4.0,100,0.00,,,0.07,Wunderground v.1.15,2013-06-25 22:34:00,
2013-06-25 18:38:00,79.9,79.9,29.73,WNW,296,2.0,6.0,100,0.00,,,0.07,Wunderground v.1.15,2013-06-25 22:38:00,
2013-06-25 18:44:00,79.8,79.8,29.73,West,274,1.0,2.0,100,0.00,,,0.07,Wunderground v.1.15,2013-06-25 22:44:00,
2013-06-25 18:49:00,79.6,79.6,29.74,West,274,2.0,4.0,100,0.00,,,0.07,Wunderground v.1.15,2013-06-25 22:49:00,
2013-06-25 18:55:00,79.2,79.2,29.74,West,280,2.0,7.0,100,0.00,,,0.07,Wunderground v.1.15,2013-06-25 22:55:00,
2013-06-25 19:00:00,78.8,78.8,29.73,West,260,3.0,3.0,100,0.00,,,0.07,Wunderground v.1.15,2013-06-25 23:00:00,
2013-06-25 19:05:00,78.3,78.3,29.73,NW,312,3.0,7.0,100,0.00,,,0.07,Wunderground v.1.15,2013-06-25 23:05:00,
2013-06-25 19:11:00,77.9,77.9,29.73,West,260,3.0,3.0,100,0.00,,,0.07,Wunderground v.1.15,2013-06-25 23:11:00,
2013-06-25 19:16:00,77.9,77.9,29.73,West,260,1.0,3.0,100,0.00,,,0.07,Wunderground v.1.15,2013-06-25 23:16:00,
2013-06-25 19:22:00,77.7,77.7,29.73,WNW,289,1.0,5.0,100,0.00,,,0.07,Wunderground v.1.15,2013-06-25 23:22:00,
2013-06-25 19:29:00,77.7,77.7,29.73,WNW,289,1.0,5.0,100,0.00,,,0.07,Wunderground v.1.15,2013-06-25 23:29:00,
2013-06-25 19:34:00,77.6,77.6,29.73,WNW,299,1.0,6.0,100,0.00,,,0.07,Wunderground v.1.15,2013-06-25 23:34:00,
2013-06-25 19:39:00,77.6,77.6,29.73,WNW,295,2.0,6.0,100,0.00,,,0.07,Wunderground v.1.15,2013-06-25 23:39:00,
2013-06-25 19:45:00,77.4,77.4,29.72,WNW,295,1.0,2.0,100,0.00,,,0.07,Wunderground v.1.15,2013-06-25 23:45:00,
2013-06-25 19:50:00,77.0,77.0,29.72,WNW,299,2.0,2.0,100,0.00,,,0.07,Wunderground v.1.15,2013-06-25 23:50:00,
2013-06-25 19:55:00,76.7,76.7,29.72,West,272,2.0,5.0,100,0.00,,,0.07,Wunderground v.1.15,2013-06-25 23:55:00,
2013-06-25 20:01:00,76.5,76.5,29.71,West,274,1.0,11.0,100,0.00,,,0.07,Wunderground v.1.15,2013-06-26 00:01:00,
2013-06-25 20:07:00,76.5,76.5,29.71,West,272,0.0,11.0,100,0.00,,,0.07,Wunderground v.1.15,2013-06-26 00:07:00,
2013-06-25 20:14:00,76.1,76.1,29.71,West,274,0.0,2.0,100,0.00,,,0.07,Wunderground v.1.15,2013-06-26 00:14:00,
2013-06-25 20:19:00,76.0,76.0,29.72,West,272,0.0,2.0,100,0.00,,,0.07,Wunderground v.1.15,2013-06-26 00:19:00,
2013-06-25 20:24:00,75.8,75.8,29.72,West,272,1.0,1.0,100,0.00,,,0.07,Wunderground v.1.15,2013-06-26 00:24:00,
2013-06-25 20:30:00,75.6,75.6,29.72,West,272,0.0,0.0,100,0.00,,,0.07,Wunderground v.1.15,2013-06-26 00:30:00,
2013-06-25 20:35:00,75.4,75.4,29.72,West,272,0.0,0.0,100,0.00,,,0.07,Wunderground v.1.15,2013-06-26 00:35:00,
2013-06-25 20:41:00,75.3,75.3,29.72,West,272,0.0,0.0,100,0.00,,,0.07,Wunderground v.1.15,2013-06-26 00:41:00,
2013-06-25 20:46:00,75.3,75.3,29.74,West,272,0.0,0.0,100,0.00,,,0.07,Wunderground v.1.15,2013-06-26 00:46:00,
2013-06-25 20:52:00,74.9,74.9,29.74,West,272,0.0,0.0,100,0.00,,,0.07,Wunderground v.1.15,2013-06-26 00:52:00,
2013-06-25 20:59:00,74.7,74.7,29.74,West,272,0.0,0.0,100,0.00,,,0.07,Wunderground v.1.15,2013-06-26 00:59:00,
2013-06-25 21:04:00,74.4,74.4,29.73,West,272,0.0,8.0,100,0.00,,,0.07,Wunderground v.1.15,2013-06-26 01:04:00,
2013-06-25 21:09:00,74.2,74.2,29.73,West,272,0.0,8.0,100,0.00,,,0.07,Wunderground v.1.15,2013-06-26 01:09:00,
2013-06-25 21:14:00,74.2,74.2,29.74,West,272,0.0,0.0,100,0.00,,,0.07,Wunderground v.1.15,2013-06-26 01:14:00,
2013-06-25 21:20:00,74.0,74.0,29.74,West,272,0.0,0.0,100,0.00,,,0.07,Wunderground v.1.15,2013-06-26 01:20:00,
2013-06-25 21:25:00,73.7,73.7,29.74,West,272,0.0,0.0,100,0.00,,,0.07,Wunderground v.1.15,2013-06-26 01:25:00,
2013-06-25 21:30:00,73.3,73.3,29.73,West,272,0.0,0.0,100,0.00,,,0.07,Wunderground v.1.15,2013-06-26 01:30:00,
2013-06-25 21:36:00,73.0,73.0,29.73,West,272,0.0,0.0,100,0.00,,,0.07,Wunderground v.1.15,2013-06-26 01:36:00,
2013-06-25 21:41:00,72.8,72.8,29.73,West,272,0.0,0.0,100,0.00,,,0.07,Wunderground v.1.15,2013-06-26 01:41:00,
2013-06-25 21:47:00,72.7,72.7,29.74,West,272,0.0,0.0,100,0.00,,,0.07,Wunderground v.1.15,2013-06-26 01:47:00,
2013-06-25 21:54:00,72.3,72.3,29.74,West,272,0.0,0.0,100,0.00,,,0.07,Wunderground v.1.15,2013-06-26 01:54:00,
2013-06-25 21:59:00,72.0,72.0,29.75,West,272,0.0,0.0,100,0.00,,,0.07,Wunderground v.1.15,2013-06-26 01:59:00,
2013-06-25 22:04:00,72.0,72.0,29.75,West,272,0.0,2.0,100,0.00,,,0.07,Wunderground v.1.15,2013-06-26 02:04:00,
2013-06-25 22:10:00,71.6,71.6,29.75,West,272,0.0,0.0,100,0.00,,,0.07,Wunderground v.1.15,2013-06-26 02:10:00,
2013-06-25 22:16:00,71.5,71.5,29.76,West,272,0.0,0.0,100,0.00,,,0.07,Wunderground v.1.15,2013-06-26 02:16:00,
2013-06-25 22:22:00,71.3,71.3,29.76,West,272,0.0,0.0,100,0.00,,,0.07,Wunderground v.1.15,2013-06-26 02:22:00,
2013-06-25 22:27:00,71.3,71.3,29.76,West,272,0.0,0.0,100,0.00,,,0.07,Wunderground v.1.15,2013-06-26 02:27:00,
2013-06-25 22:32:00,71.1,71.1,29.77,West,272,0.0,0.0,100,0.00,,,0.07,Wunderground v.1.15,2013-06-26 02:32:00,
2013-06-25 22:39:00,70.9,70.9,29.77,West,272,0.0,0.0,100,0.00,,,0.07,Wunderground v.1.15,2013-06-26 02:39:00,
2013-06-25 22:44:00,71.1,71.1,29.76,West,272,0.0,0.0,100,0.00,,,0.07,Wunderground v.1.15,2013-06-26 02:44:00,
2013-06-25 22:50:00,71.3,71.3,29.76,West,272,0.0,0.0,100,0.00,,,0.07,Wunderground v.1.15,2013-06-26 02:50:00,
2013-06-25 22:56:00,71.8,71.8,29.76,West,272,0.0,0.0,100,0.00,,,0.07,Wunderground v.1.15,2013-06-26 02:56:00,
2013-06-25 23:01:00,71.6,71.6,29.76,West,272,0.0,0.0,100,0.00,,,0.08,Wunderground v.1.15,2013-06-26 03:01:00,
2013-06-25 23:07:00,71.5,71.5,29.76,West,272,0.0,0.0,100,0.00,,,0.08,Wunderground v.1.15,2013-06-26 03:07:00,
2013-06-25 23:12:00,71.3,71.3,29.76,West,272,0.0,0.0,100,0.00,,,0.08,Wunderground v.1.15,2013-06-26 03:12:00,
2013-06-25 23:18:00,71.1,71.1,29.75,West,272,0.0,0.0,100,0.00,,,0.08,Wunderground v.1.15,2013-06-26 03:18:00,
2013-06-25 23:24:00,70.6,70.6,29.75,West,272,0.0,0.0,100,0.00,,,0.08,Wunderground v.1.15,2013-06-26 03:24:00,
2013-06-25 23:29:00,70.4,70.4,29.75,West,272,0.0,0.0,100,0.00,,,0.08,Wunderground v.1.15,2013-06-26 03:29:00,
2013-06-25 23:34:00,70.3,70.3,29.75,West,272,0.0,0.0,100,0.00,,,0.08,Wunderground v.1.15,2013-06-26 03:34:00,
2013-06-25 23:40:00,70.1,70.1,29.75,West,272,0.0,0.0,100,0.00,,,0.08,Wunderground v.1.15,2013-06-26 03:40:00,
2013-06-25 23:46:00,69.9,69.9,29.75,West,272,0.0,0.0,100,0.00,,,0.08,Wunderground v.1.15,2013-06-26 03:46:00,
2013-06-25 23:51:00,69.8,69.8,29.75,West,272,0.0,0.0,100,0.00,,,0.08,Wunderground v.1.15,2013-06-26 03:51:00,
2013-06-25 23:57:00,69.6,69.6,29.75,West,272,0.0,0.0,100,0.00,,,0.08,Wunderground v.1.15,2013-06-26 03:57:00,